sensor_id;sensor_type;location;lat;lon;timestamp;pressure;altitude;pressure_sealevel;temperature;humidity
67654;BME280;54791;52.364;4.648;2022-11-20T00:01:11;101441.13;;;-0.05;100.00
67654;BME280;54791;52.364;4.648;2022-11-20T00:03:38;101438.56;;;-0.02;100.00
67654;BME280;54791;52.364;4.648;2022-11-20T00:06:07;101434.13;;;-0.08;100.00
67654;BME280;54791;52.364;4.648;2022-11-20T00:08:34;101431.47;;;-0.11;100.00
67654;BME280;54791;52.364;4.648;2022-11-20T00:11:05;101433.94;;;-0.20;100.00
67654;BME280;54791;52.364;4.648;2022-11-20T00:13:33;101425.91;;;-0.32;100.00
67654;BME280;54791;52.364;4.648;2022-11-20T00:16:02;101426.69;;;-0.40;100.00
67654;BME280;54791;52.364;4.648;2022-11-20T00:18:29;101432.00;;;-0.34;100.00
67654;BME280;54791;52.364;4.648;2022-11-20T00:21:07;101431.22;;;-0.28;100.00
67654;BME280;54791;52.364;4.648;2022-11-20T00:23:34;101428.44;;;-0.39;100.00
67654;BME280;54791;52.364;4.648;2022-11-20T00:26:09;101429.06;;;-0.54;100.00
67654;BME280;54791;52.364;4.648;2022-11-20T00:28:36;101430.00;;;-0.48;100.00
67654;BME280;54791;52.364;4.648;2022-11-20T00:31:18;101425.88;;;-0.34;100.00
67654;BME280;54791;52.364;4.648;2022-11-20T00:33:46;101417.19;;;-0.36;100.00
67654;BME280;54791;52.364;4.648;2022-11-20T00:36:17;101428.50;;;-0.34;100.00
67654;BME280;54791;52.364;4.648;2022-11-20T00:38:44;101429.31;;;-0.38;100.00
67654;BME280;54791;52.364;4.648;2022-11-20T00:41:23;101435.09;;;-0.56;100.00
67654;BME280;54791;52.364;4.648;2022-11-20T00:43:51;101431.69;;;-0.52;100.00
67654;BME280;54791;52.364;4.648;2022-11-20T00:46:23;101426.50;;;-0.51;100.00
67654;BME280;54791;52.364;4.648;2022-11-20T00:48:49;101430.00;;;-0.48;100.00
67654;BME280;54791;52.364;4.648;2022-11-20T00:51:26;101417.81;;;-0.50;100.00
67654;BME280;54791;52.364;4.648;2022-11-20T00:54:03;101424.75;;;-0.52;100.00
67654;BME280;54791;52.364;4.648;2022-11-20T00:56:30;101418.81;;;-0.43;100.00
67654;BME280;54791;52.364;4.648;2022-11-20T00:59:00;101408.47;;;-0.38;100.00
67654;BME280;54791;52.364;4.648;2022-11-20T01:01:27;101409.38;;;-0.36;100.00
67654;BME280;54791;52.364;4.648;2022-11-20T01:03:56;101406.69;;;-0.39;100.00
67654;BME280;54791;52.364;4.648;2022-11-20T01:06:26;101410.22;;;-0.37;100.00
67654;BME280;54791;52.364;4.648;2022-11-20T01:08:55;101409.41;;;-0.33;100.00
67654;BME280;54791;52.364;4.648;2022-11-20T01:11:30;101411.19;;;-0.30;100.00
67654;BME280;54791;52.364;4.648;2022-11-20T01:13:58;101405.97;;;-0.30;100.00
67654;BME280;54791;52.364;4.648;2022-11-20T01:16:39;101403.94;;;-0.50;100.00
67654;BME280;54791;52.364;4.648;2022-11-20T01:19:10;101412.06;;;-0.82;100.00
67654;BME280;54791;52.364;4.648;2022-11-20T01:21:40;101409.16;;;-1.01;100.00
67654;BME280;54791;52.364;4.648;2022-11-20T01:24:15;101411.75;;;-1.01;100.00
67654;BME280;54791;52.364;4.648;2022-11-20T01:26:43;101414.56;;;-0.88;100.00
67654;BME280;54791;52.364;4.648;2022-11-20T01:29:19;101417.25;;;-0.85;100.00
67654;BME280;54791;52.364;4.648;2022-11-20T01:31:46;101409.97;;;-1.03;100.00
67654;BME280;54791;52.364;4.648;2022-11-20T01:34:14;101402.91;;;-1.10;100.00
67654;BME280;54791;52.364;4.648;2022-11-20T01:36:46;101401.28;;;-1.04;100.00
67654;BME280;54791;52.364;4.648;2022-11-20T01:39:24;101396.19;;;-0.97;100.00
67654;BME280;54791;52.364;4.648;2022-11-20T01:41:52;101395.06;;;-1.12;100.00
67654;BME280;54791;52.364;4.648;2022-11-20T01:44:59;101382.78;;;-1.19;100.00
67654;BME280;54791;52.364;4.648;2022-11-20T01:47:45;101379.63;;;-1.01;100.00
67654;BME280;54791;52.364;4.648;2022-11-20T01:50:16;101379.06;;;-0.85;100.00
67654;BME280;54791;52.364;4.648;2022-11-20T01:52:49;101377.28;;;-0.86;100.00
67654;BME280;54791;52.364;4.648;2022-11-20T01:55:25;101370.50;;;-0.79;100.00
67654;BME280;54791;52.364;4.648;2022-11-20T01:57:53;101372.41;;;-0.69;100.00
67654;BME280;54791;52.364;4.648;2022-11-20T02:00:20;101366.16;;;-0.77;100.00
67654;BME280;54791;52.364;4.648;2022-11-20T02:02:54;101378.34;;;-0.74;100.00
67654;BME280;54791;52.364;4.648;2022-11-20T02:05:31;101376.69;;;-0.71;100.00
67654;BME280;54791;52.364;4.648;2022-11-20T02:07:59;101374.13;;;-0.68;100.00
67654;BME280;54791;52.364;4.648;2022-11-20T02:10:27;101384.34;;;-0.81;100.00
67654;BME280;54791;52.364;4.648;2022-11-20T02:12:54;101384.59;;;-1.15;100.00
67654;BME280;54791;52.364;4.648;2022-11-20T02:15:40;101373.84;;;-1.34;100.00
67654;BME280;54791;52.364;4.648;2022-11-20T02:18:08;101380.59;;;-1.45;100.00
67654;BME280;54791;52.364;4.648;2022-11-20T02:20:35;101381.25;;;-1.55;100.00
67654;BME280;54791;52.364;4.648;2022-11-20T02:23:24;101376.34;;;-1.40;100.00
67654;BME280;54791;52.364;4.648;2022-11-20T02:25:54;101368.03;;;-1.20;100.00
67654;BME280;54791;52.364;4.648;2022-11-20T02:28:22;101355.03;;;-1.20;100.00
67654;BME280;54791;52.364;4.648;2022-11-20T02:30:48;101360.75;;;-1.38;100.00
67654;BME280;54791;52.364;4.648;2022-11-20T02:33:15;101369.13;;;-1.53;100.00
67654;BME280;54791;52.364;4.648;2022-11-20T02:35:45;101367.16;;;-1.67;100.00
67654;BME280;54791;52.364;4.648;2022-11-20T02:38:11;101367.78;;;-1.78;100.00
67654;BME280;54791;52.364;4.648;2022-11-20T02:40:38;101356.94;;;-1.56;100.00
67654;BME280;54791;52.364;4.648;2022-11-20T02:43:04;101351.88;;;-1.50;100.00
67654;BME280;54791;52.364;4.648;2022-11-20T02:45:30;101350.09;;;-1.51;100.00
67654;BME280;54791;52.364;4.648;2022-11-20T02:47:57;101348.56;;;-1.42;100.00
67654;BME280;54791;52.364;4.648;2022-11-20T02:50:23;101346.91;;;-1.37;100.00
67654;BME280;54791;52.364;4.648;2022-11-20T02:52:49;101340.78;;;-1.39;100.00
67654;BME280;54791;52.364;4.648;2022-11-20T02:55:15;101341.72;;;-1.37;100.00
67654;BME280;54791;52.364;4.648;2022-11-20T02:57:41;101350.19;;;-1.47;100.00
67654;BME280;54791;52.364;4.648;2022-11-20T03:00:09;101349.78;;;-1.68;100.00
67654;BME280;54791;52.364;4.648;2022-11-20T03:02:36;101345.25;;;-1.76;100.00
67654;BME280;54791;52.364;4.648;2022-11-20T03:05:02;101342.59;;;-1.81;100.00
67654;BME280;54791;52.364;4.648;2022-11-20T03:07:29;101346.03;;;-1.82;100.00
67654;BME280;54791;52.364;4.648;2022-11-20T03:09:55;101348.50;;;-1.88;100.00
67654;BME280;54791;52.364;4.648;2022-11-20T03:12:21;101341.63;;;-1.86;100.00
67654;BME280;54791;52.364;4.648;2022-11-20T03:14:47;101342.00;;;-1.66;100.00
67654;BME280;54791;52.364;4.648;2022-11-20T03:17:12;101341.34;;;-1.56;100.00
67654;BME280;54791;52.364;4.648;2022-11-20T03:19:38;101337.88;;;-1.56;100.00
67654;BME280;54791;52.364;4.648;2022-11-20T03:22:04;101327.31;;;-1.66;100.00
67654;BME280;54791;52.364;4.648;2022-11-20T03:24:30;101321.06;;;-1.72;100.00
67654;BME280;54791;52.364;4.648;2022-11-20T03:26:56;101318.25;;;-1.85;100.00
67654;BME280;54791;52.364;4.648;2022-11-20T03:29:21;101314.59;;;-1.93;100.00
67654;BME280;54791;52.364;4.648;2022-11-20T03:31:47;101313.72;;;-1.93;100.00
67654;BME280;54791;52.364;4.648;2022-11-20T03:34:13;101318.88;;;-1.96;100.00
67654;BME280;54791;52.364;4.648;2022-11-20T03:36:40;101310.22;;;-1.95;100.00
67654;BME280;54791;52.364;4.648;2022-11-20T03:39:06;101301.91;;;-1.77;100.00
67654;BME280;54791;52.364;4.648;2022-11-20T03:41:37;101299.53;;;-1.67;100.00
67654;BME280;54791;52.364;4.648;2022-11-20T03:44:05;101297.78;;;-1.68;100.00
67654;BME280;54791;52.364;4.648;2022-11-20T03:46:32;101292.69;;;-1.61;100.00
67654;BME280;54791;52.364;4.648;2022-11-20T03:48:59;101295.41;;;-1.55;100.00
67654;BME280;54791;52.364;4.648;2022-11-20T03:51:27;101298.78;;;-1.59;100.00
67654;BME280;54791;52.364;4.648;2022-11-20T03:53:56;101294.38;;;-1.63;100.00
67654;BME280;54791;52.364;4.648;2022-11-20T03:56:26;101290.88;;;-1.66;100.00
67654;BME280;54791;52.364;4.648;2022-11-20T03:58:53;101294.31;;;-1.68;100.00
67654;BME280;54791;52.364;4.648;2022-11-20T04:01:22;101287.50;;;-1.61;100.00
67654;BME280;54791;52.364;4.648;2022-11-20T04:03:48;101284.91;;;-1.60;100.00
67654;BME280;54791;52.364;4.648;2022-11-20T04:06:19;101283.81;;;-1.73;100.00
67654;BME280;54791;52.364;4.648;2022-11-20T04:08:45;101274.38;;;-1.68;100.00
67654;BME280;54791;52.364;4.648;2022-11-20T04:13:38;101269.31;;;-1.60;100.00
67654;BME280;54791;52.364;4.648;2022-11-20T04:16:06;101271.75;;;-1.69;100.00
67654;BME280;54791;52.364;4.648;2022-11-20T04:18:33;101280.97;;;-1.85;100.00
67654;BME280;54791;52.364;4.648;2022-11-20T04:20:59;101272.25;;;-1.89;100.00
67654;BME280;54791;52.364;4.648;2022-11-20T04:23:26;101276.72;;;-1.80;100.00
67654;BME280;54791;52.364;4.648;2022-11-20T04:25:53;101256.22;;;-1.64;100.00
67654;BME280;54791;52.364;4.648;2022-11-20T04:28:19;101261.56;;;-1.57;100.00
67654;BME280;54791;52.364;4.648;2022-11-20T04:30:46;101261.31;;;-1.71;100.00
67654;BME280;54791;52.364;4.648;2022-11-20T04:33:12;101246.34;;;-1.83;100.00
67654;BME280;54791;52.364;4.648;2022-11-20T04:35:39;101244.81;;;-1.71;100.00
67654;BME280;54791;52.364;4.648;2022-11-20T04:38:05;101244.16;;;-1.59;100.00
67654;BME280;54791;52.364;4.648;2022-11-20T04:40:30;101247.00;;;-1.47;100.00
67654;BME280;54791;52.364;4.648;2022-11-20T04:42:56;101250.66;;;-1.36;100.00
67654;BME280;54791;52.364;4.648;2022-11-20T04:45:23;101249.44;;;-1.58;100.00
67654;BME280;54791;52.364;4.648;2022-11-20T04:47:49;101256.22;;;-1.64;100.00
67654;BME280;54791;52.364;4.648;2022-11-20T04:50:15;101244.03;;;-1.67;100.00
67654;BME280;54791;52.364;4.648;2022-11-20T04:52:40;101242.34;;;-1.65;100.00
67654;BME280;54791;52.364;4.648;2022-11-20T04:55:07;101239.09;;;-1.53;100.00
67654;BME280;54791;52.364;4.648;2022-11-20T04:57:32;101238.25;;;-1.52;100.00
67654;BME280;54791;52.364;4.648;2022-11-20T04:59:58;101239.31;;;-1.41;100.00
67654;BME280;54791;52.364;4.648;2022-11-20T05:02:24;101233.31;;;-1.35;100.00
67654;BME280;54791;52.364;4.648;2022-11-20T05:04:51;101244.81;;;-1.22;100.00
67654;BME280;54791;52.364;4.648;2022-11-20T05:07:16;101243.94;;;-1.23;100.00
67654;BME280;54791;52.364;4.648;2022-11-20T05:09:42;101236.63;;;-1.44;100.00
67654;BME280;54791;52.364;4.648;2022-11-20T05:12:08;101235.47;;;-1.61;100.00
67654;BME280;54791;52.364;4.648;2022-11-20T05:14:34;101238.09;;;-1.61;100.00
67654;BME280;54791;52.364;4.648;2022-11-20T05:17:00;101234.66;;;-1.59;100.00
67654;BME280;54791;52.364;4.648;2022-11-20T05:19:26;101249.97;;;-1.74;100.00
67654;BME280;54791;52.364;4.648;2022-11-20T05:21:52;101256.72;;;-1.84;100.00
67654;BME280;54791;52.364;4.648;2022-11-20T05:24:18;101254.19;;;-1.81;100.00
67654;BME280;54791;52.364;4.648;2022-11-20T05:26:44;101247.38;;;-1.74;100.00
67654;BME280;54791;52.364;4.648;2022-11-20T05:29:11;101248.34;;;-1.69;100.00
67654;BME280;54791;52.364;4.648;2022-11-20T05:31:39;101244.09;;;-1.66;100.00
67654;BME280;54791;52.364;4.648;2022-11-20T05:34:06;101246.44;;;-1.78;100.00
67654;BME280;54791;52.364;4.648;2022-11-20T05:36:32;101247.84;;;-1.95;100.00
67654;BME280;54791;52.364;4.648;2022-11-20T05:38:58;101250.34;;;-2.02;100.00
67654;BME280;54791;52.364;4.648;2022-11-20T05:41:24;101250.44;;;-1.95;100.00
67654;BME280;54791;52.364;4.648;2022-11-20T05:43:50;101247.97;;;-1.89;100.00
67654;BME280;54791;52.364;4.648;2022-11-20T05:46:18;101243.53;;;-1.95;100.00
67654;BME280;54791;52.364;4.648;2022-11-20T05:48:46;101251.34;;;-1.93;100.00
67654;BME280;54791;52.364;4.648;2022-11-20T05:51:15;101243.03;;;-1.75;100.00
67654;BME280;54791;52.364;4.648;2022-11-20T05:53:42;101241.41;;;-1.69;100.00
67654;BME280;54791;52.364;4.648;2022-11-20T05:56:10;101246.81;;;-1.58;100.00
67654;BME280;54791;52.364;4.648;2022-11-20T05:58:37;101233.03;;;-1.54;100.00
67654;BME280;54791;52.364;4.648;2022-11-20T06:01:23;101242.72;;;-1.45;100.00
67654;BME280;54791;52.364;4.648;2022-11-20T06:03:50;101234.00;;;-1.47;100.00
67654;BME280;54791;52.364;4.648;2022-11-20T06:06:17;101237.41;;;-1.51;100.00
67654;BME280;54791;52.364;4.648;2022-11-20T06:08:44;101237.75;;;-1.29;100.00
67654;BME280;54791;52.364;4.648;2022-11-20T06:11:11;101237.41;;;-1.51;100.00
67654;BME280;54791;52.364;4.648;2022-11-20T06:13:38;101235.53;;;-1.57;100.00
67654;BME280;54791;52.364;4.648;2022-11-20T06:16:04;101233.97;;;-1.50;100.00
67654;BME280;54791;52.364;4.648;2022-11-20T06:18:31;101229.63;;;-1.50;100.00
67654;BME280;54791;52.364;4.648;2022-11-20T06:21:11;101219.72;;;-1.71;100.00
67654;BME280;54791;52.364;4.648;2022-11-20T06:23:37;101216.38;;;-1.62;100.00
67654;BME280;54791;52.364;4.648;2022-11-20T06:26:09;101207.00;;;-1.54;100.00
67654;BME280;54791;52.364;4.648;2022-11-20T06:28:36;101197.53;;;-1.50;100.00
67654;BME280;54791;52.364;4.648;2022-11-20T06:31:09;101221.03;;;-1.44;100.00
67654;BME280;54791;52.364;4.648;2022-11-20T06:33:36;101214.97;;;-1.43;100.00
67654;BME280;54791;52.364;4.648;2022-11-20T06:36:03;101201.22;;;-1.37;100.00
67654;BME280;54791;52.364;4.648;2022-11-20T06:38:30;101210.81;;;-1.35;100.00
67654;BME280;54791;52.364;4.648;2022-11-20T06:40:56;101207.41;;;-1.29;100.00
67654;BME280;54791;52.364;4.648;2022-11-20T06:43:25;101204.00;;;-1.25;100.00
67654;BME280;54791;52.364;4.648;2022-11-20T06:45:55;101198.75;;;-1.28;100.00
67654;BME280;54791;52.364;4.648;2022-11-20T06:48:23;101191.69;;;-1.35;100.00
67654;BME280;54791;52.364;4.648;2022-11-20T06:50:50;101191.69;;;-1.37;100.00
67654;BME280;54791;52.364;4.648;2022-11-20T06:53:16;101190.88;;;-1.33;100.00
67654;BME280;54791;52.364;4.648;2022-11-20T06:55:44;101190.97;;;-1.26;100.00
67654;BME280;54791;52.364;4.648;2022-11-20T06:58:12;101185.81;;;-1.22;100.00
67654;BME280;54791;52.364;4.648;2022-11-20T07:00:38;101185.69;;;-1.29;100.00
67654;BME280;54791;52.364;4.648;2022-11-20T07:03:06;101191.78;;;-1.30;100.00
67654;BME280;54791;52.364;4.648;2022-11-20T07:05:32;101195.34;;;-1.25;100.00
67654;BME280;54791;52.364;4.648;2022-11-20T07:07:59;101190.88;;;-1.31;100.00
67654;BME280;54791;52.364;4.648;2022-11-20T07:10:26;101188.38;;;-1.25;100.00
67654;BME280;54791;52.364;4.648;2022-11-20T07:12:53;101196.03;;;-1.36;100.00
67654;BME280;54791;52.364;4.648;2022-11-20T07:15:21;101201.97;;;-1.44;100.00
67654;BME280;54791;52.364;4.648;2022-11-20T07:17:47;101191.84;;;-1.26;100.00
67654;BME280;54791;52.364;4.648;2022-11-20T07:20:18;101198.81;;;-1.23;100.00
67654;BME280;54791;52.364;4.648;2022-11-20T07:22:45;101193.63;;;-1.23;100.00
67654;BME280;54791;52.364;4.648;2022-11-20T07:25:11;101198.81;;;-1.23;100.00
67654;BME280;54791;52.364;4.648;2022-11-20T07:27:37;101192.75;;;-1.24;100.00
67654;BME280;54791;52.364;4.648;2022-11-20T07:30:06;101195.47;;;-1.16;100.00
67654;BME280;54791;52.364;4.648;2022-11-20T07:32:32;101194.63;;;-1.15;100.00
67654;BME280;54791;52.364;4.648;2022-11-20T07:34:58;101191.91;;;-1.21;100.00
67654;BME280;54791;52.364;4.648;2022-11-20T07:37:24;101194.53;;;-1.21;100.00
67654;BME280;54791;52.364;4.648;2022-11-20T07:39:50;101183.28;;;-1.19;100.00
67654;BME280;54791;52.364;4.648;2022-11-20T07:42:16;101181.63;;;-1.13;100.00
67654;BME280;54791;52.364;4.648;2022-11-20T07:44:43;101186.00;;;-1.11;100.00
67654;BME280;54791;52.364;4.648;2022-11-20T07:47:09;101184.41;;;-1.01;100.00
67654;BME280;54791;52.364;4.648;2022-11-20T07:49:35;101193.97;;;-1.00;100.00
67654;BME280;54791;52.364;4.648;2022-11-20T07:52:01;101191.38;;;-0.98;100.00
67654;BME280;54791;52.364;4.648;2022-11-20T07:54:27;101189.66;;;-1.00;100.00
67654;BME280;54791;52.364;4.648;2022-11-20T07:56:54;101186.97;;;-1.04;100.00
67654;BME280;54791;52.364;4.648;2022-11-20T07:59:20;101191.97;;;-1.17;100.00
67654;BME280;54791;52.364;4.648;2022-11-20T08:01:45;101188.72;;;-1.05;100.00
67654;BME280;54791;52.364;4.648;2022-11-20T08:04:11;101191.34;;;-1.02;100.00
67654;BME280;54791;52.364;4.648;2022-11-20T08:06:37;101186.13;;;-1.02;100.00
67654;BME280;54791;52.364;4.648;2022-11-20T08:09:03;101173.16;;;-0.98;100.00
67654;BME280;54791;52.364;4.648;2022-11-20T08:11:28;101179.25;;;-1.00;100.00
67654;BME280;54791;52.364;4.648;2022-11-20T08:14:14;101181.75;;;-1.06;100.00
67654;BME280;54791;52.364;4.648;2022-11-20T08:16:46;101173.00;;;-1.09;100.00
67654;BME280;54791;52.364;4.648;2022-11-20T08:19:16;101179.25;;;-1.00;100.00
67654;BME280;54791;52.364;4.648;2022-11-20T08:21:43;101179.06;;;-1.10;100.00
67654;BME280;54791;52.364;4.648;2022-11-20T08:24:10;101181.66;;;-1.10;100.00
67654;BME280;54791;52.364;4.648;2022-11-20T08:26:38;101176.09;;;-1.34;100.00
67654;BME280;54791;52.364;4.648;2022-11-20T08:29:05;101182.34;;;-1.22;100.00
67654;BME280;54791;52.364;4.648;2022-11-20T08:31:32;101179.16;;;-1.04;100.00
67654;BME280;54791;52.364;4.648;2022-11-20T08:33:58;101180.97;;;-0.98;100.00
67654;BME280;54791;52.364;4.648;2022-11-20T08:36:24;101172.50;;;-0.85;100.00
67654;BME280;54791;52.364;4.648;2022-11-20T08:38:55;101168.22;;;-0.78;100.00
67654;BME280;54791;52.364;4.648;2022-11-20T08:41:21;101163.94;;;-0.75;100.00
67654;BME280;54791;52.364;4.648;2022-11-20T08:43:59;101158.75;;;-0.75;100.00
67654;BME280;54791;52.364;4.648;2022-11-20T08:46:26;101161.34;;;-0.75;100.00
67654;BME280;54791;52.364;4.648;2022-11-20T08:48:53;101157.06;;;-0.70;100.00
67654;BME280;54791;52.364;4.648;2022-11-20T08:51:20;101162.34;;;-0.63;100.00
67654;BME280;54791;52.364;4.648;2022-11-20T08:53:46;101158.94;;;-0.59;100.00
67654;BME280;54791;52.364;4.648;2022-11-20T08:56:14;101159.78;;;-0.62;100.00
67654;BME280;54791;52.364;4.648;2022-11-20T08:58:40;101159.91;;;-0.51;100.00
67654;BME280;54791;52.364;4.648;2022-11-20T09:01:07;101160.81;;;-0.46;100.00
67654;BME280;54791;52.364;4.648;2022-11-20T09:03:32;101154.84;;;-0.39;100.00
67654;BME280;54791;52.364;4.648;2022-11-20T09:06:00;101146.13;;;-0.39;100.00
67654;BME280;54791;52.364;4.648;2022-11-20T09:08:27;101150.56;;;-0.34;100.00
67654;BME280;54791;52.364;4.648;2022-11-20T09:10:54;101155.88;;;-0.24;100.00
67654;BME280;54791;52.364;4.648;2022-11-20T09:13:24;101141.94;;;-0.26;100.00
67654;BME280;54791;52.364;4.648;2022-11-20T09:15:58;101148.06;;;-0.24;100.00
67654;BME280;54791;52.364;4.648;2022-11-20T09:18:25;101128.91;;;-0.26;100.00
67654;BME280;54791;52.364;4.648;2022-11-20T09:20:51;101136.03;;;-0.10;100.00
67654;BME280;54791;52.364;4.648;2022-11-20T09:23:19;101127.91;;;-0.39;100.00
67654;BME280;54791;52.364;4.648;2022-11-20T09:25:44;101125.47;;;-0.22;100.00
67654;BME280;54791;52.364;4.648;2022-11-20T09:28:10;101123.00;;;-0.11;100.00
67654;BME280;54791;52.364;4.648;2022-11-20T09:30:36;101126.22;;;-0.32;100.00
67654;BME280;54791;52.364;4.648;2022-11-20T09:33:04;101122.06;;;-0.15;100.00
67654;BME280;54791;52.364;4.648;2022-11-20T09:35:30;101115.31;;;0.04;100.00
67654;BME280;54791;52.364;4.648;2022-11-20T09:37:56;101124.06;;;0.11;100.00
67654;BME280;54791;52.364;4.648;2022-11-20T09:40:25;101121.59;;;0.26;100.00
67654;BME280;54791;52.364;4.648;2022-11-20T09:46:07;101116.44;;;0.36;100.00
67654;BME280;54791;52.364;4.648;2022-11-20T09:48:48;101103.38;;;0.32;100.00
67654;BME280;54791;52.364;4.648;2022-11-20T09:54:18;101095.84;;;0.73;100.00
67654;BME280;54791;52.364;4.648;2022-11-20T09:57:27;101096.78;;;0.87;100.00
67654;BME280;54791;52.364;4.648;2022-11-20T09:59:42;101085.44;;;0.84;100.00
67654;BME280;54791;52.364;4.648;2022-11-20T10:02:28;101075.84;;;0.81;100.00
67654;BME280;54791;52.364;4.648;2022-11-20T10:05:04;101079.31;;;0.78;100.00
67654;BME280;54791;52.364;4.648;2022-11-20T10:07:36;101069.75;;;0.79;100.00
67654;BME280;54791;52.364;4.648;2022-11-20T10:10:05;101071.44;;;0.68;100.00
67654;BME280;54791;52.364;4.648;2022-11-20T10:18:54;101055.78;;;0.74;100.00
67654;BME280;54791;52.364;4.648;2022-11-20T10:26:03;101037.38;;;0.47;100.00
67654;BME280;54791;52.364;4.648;2022-11-20T10:31:21;101027.00;;;0.54;100.00
67654;BME280;54791;52.364;4.648;2022-11-20T10:33:51;101018.31;;;0.58;100.00
67654;BME280;54791;52.364;4.648;2022-11-20T10:36:41;101013.09;;;0.56;100.00
67654;BME280;54791;52.364;4.648;2022-11-20T10:39:35;101000.06;;;0.62;100.00
67654;BME280;54791;52.364;4.648;2022-11-20T10:42:01;100995.75;;;0.69;100.00
67654;BME280;54791;52.364;4.648;2022-11-20T10:44:28;101000.97;;;0.71;100.00
67654;BME280;54791;52.364;4.648;2022-11-20T10:47:16;100995.75;;;0.72;100.00
67654;BME280;54791;52.364;4.648;2022-11-20T10:49:46;100988.78;;;0.63;100.00
67654;BME280;54791;52.364;4.648;2022-11-20T11:04:51;100963.59;;;0.84;100.00
67654;BME280;54791;52.364;4.648;2022-11-20T11:07:38;100961.00;;;0.82;100.00
67654;BME280;54791;52.364;4.648;2022-11-20T11:10:18;100959.25;;;0.77;100.00
67654;BME280;54791;52.364;4.648;2022-11-20T11:12:46;100956.63;;;0.80;100.00
67654;BME280;54791;52.364;4.648;2022-11-20T11:15:39;100953.16;;;0.79;100.00
67654;BME280;54791;52.364;4.648;2022-11-20T11:18:07;100947.09;;;0.80;100.00
67654;BME280;54791;52.364;4.648;2022-11-20T11:20:34;100941.84;;;0.82;100.00
67654;BME280;54791;52.364;4.648;2022-11-20T11:23:00;100931.41;;;0.87;100.00
67654;BME280;54791;52.364;4.648;2022-11-20T11:25:27;100923.59;;;0.88;100.00
67654;BME280;54791;52.364;4.648;2022-11-20T11:27:56;100914.91;;;0.92;100.00
67654;BME280;54791;52.364;4.648;2022-11-20T11:30:24;100907.97;;;0.97;100.00
67654;BME280;54791;52.364;4.648;2022-11-20T11:33:04;100906.19;;;0.92;100.00
67654;BME280;54791;52.364;4.648;2022-11-20T11:35:31;100905.31;;;0.87;100.00
67654;BME280;54791;52.364;4.648;2022-11-20T11:38:10;100906.22;;;0.93;100.00
67654;BME280;54791;52.364;4.648;2022-11-20T11:40:38;100895.78;;;1.03;100.00
67654;BME280;54791;52.364;4.648;2022-11-20T11:43:15;100882.75;;;1.09;100.00
67654;BME280;54791;52.364;4.648;2022-11-20T11:46:02;100887.94;;;1.13;100.00
67654;BME280;54791;52.364;4.648;2022-11-20T11:48:29;100883.59;;;1.20;100.00
67654;BME280;54791;52.364;4.648;2022-11-20T11:50:54;100867.94;;;1.20;100.00
67654;BME280;54791;52.364;4.648;2022-11-20T11:53:21;100874.91;;;1.21;100.00
67654;BME280;54791;52.364;4.648;2022-11-20T11:56:09;100862.72;;;1.39;100.00
67654;BME280;54791;52.364;4.648;2022-11-20T11:58:56;100847.91;;;1.28;100.00
67654;BME280;54791;52.364;4.648;2022-11-20T12:01:42;100844.41;;;1.36;100.00
67654;BME280;54791;52.364;4.648;2022-11-20T12:05:11;100835.72;;;1.37;100.00
67654;BME280;54791;52.364;4.648;2022-11-20T12:15:45;100821.78;;;1.44;100.00
67654;BME280;54791;52.364;4.648;2022-11-20T12:18:16;100826.13;;;1.48;100.00
67654;BME280;54791;52.364;4.648;2022-11-20T12:21:09;100816.53;;;1.55;100.00
67654;BME280;54791;52.364;4.648;2022-11-20T12:24:06;100803.47;;;1.52;100.00
67654;BME280;54791;52.364;4.648;2022-11-20T12:27:15;100801.72;;;1.47;100.00
67654;BME280;54791;52.364;4.648;2022-11-20T12:29:56;100798.25;;;1.48;100.00
67654;BME280;54791;52.364;4.648;2022-11-20T12:45:14;100759.88;;;1.64;100.00
67654;BME280;54791;52.364;4.648;2022-11-20T12:58:42;100762.53;;;1.49;100.00
67654;BME280;54791;52.364;4.648;2022-11-20T13:01:49;100757.31;;;1.49;100.00
67654;BME280;54791;52.364;4.648;2022-11-20T13:04:46;100749.47;;;1.52;100.00
67654;BME280;54791;52.364;4.648;2022-11-20T13:06:58;100756.47;;;1.44;100.00
67654;BME280;54791;52.364;4.648;2022-11-20T13:09:24;100752.97;;;1.42;100.00
67654;BME280;54791;52.364;4.648;2022-11-20T13:12:33;100748.63;;;1.44;100.00
67654;BME280;54791;52.364;4.648;2022-11-20T13:14:55;100740.75;;;1.53;100.00
67654;BME280;54791;52.364;4.648;2022-11-20T13:18:03;100745.97;;;1.56;100.00
67654;BME280;54791;52.364;4.648;2022-11-20T13:20:15;100739.00;;;1.52;100.00
67654;BME280;54791;52.364;4.648;2022-11-20T13:22:52;100740.75;;;1.59;100.00
67654;BME280;54791;52.364;4.648;2022-11-20T13:25:39;100745.97;;;1.56;100.00
67654;BME280;54791;52.364;4.648;2022-11-20T13:30:49;100739.00;;;1.47;100.00
67654;BME280;54791;52.364;4.648;2022-11-20T13:33:36;100719.84;;;1.52;100.00
67654;BME280;54791;52.364;4.648;2022-11-20T13:36:05;100712.88;;;1.52;100.00
67654;BME280;54791;52.364;4.648;2022-11-20T13:38:52;100711.97;;;1.61;100.00
67654;BME280;54791;52.364;4.648;2022-11-20T13:43:57;100681.47;;;1.61;100.00
67654;BME280;54791;52.364;4.648;2022-11-20T13:46:35;100667.53;;;1.64;100.00
67654;BME280;54791;52.364;4.648;2022-11-20T13:49:07;100656.22;;;1.62;100.00
67654;BME280;54791;52.364;4.648;2022-11-20T13:51:57;100653.59;;;1.62;100.00
67654;BME280;54791;52.364;4.648;2022-11-20T14:00:22;100658.84;;;1.57;100.00
67654;BME280;54791;52.364;4.648;2022-11-20T14:03:09;100661.50;;;1.46;100.00
67654;BME280;54791;52.364;4.648;2022-11-20T14:05:40;100656.22;;;1.53;100.00
67654;BME280;54791;52.364;4.648;2022-11-20T14:08:23;100653.69;;;1.42;100.00
67654;BME280;54791;52.364;4.648;2022-11-20T14:10:50;100651.88;;;1.50;100.00
67654;BME280;54791;52.364;4.648;2022-11-20T14:13:20;100655.38;;;1.51;100.00
67654;BME280;54791;52.364;4.648;2022-11-20T14:15:46;100649.25;;;1.61;100.00
67654;BME280;54791;52.364;4.648;2022-11-20T14:18:14;100648.38;;;1.63;100.00